createdAt,value
2023-05-14T00:00:19.319Z,100.00
2023-05-14T00:01:21.768Z,100.00
2023-05-14T00:02:24.461Z,100.00
2023-05-14T00:03:26.851Z,100.00
2023-05-14T00:04:29.316Z,100.00
2023-05-14T00:05:31.826Z,100.00
2023-05-14T00:06:34.189Z,100.00
2023-05-14T00:07:36.417Z,100.00
2023-05-14T00:08:38.649Z,100.00
2023-05-14T00:09:41.168Z,100.00
2023-05-14T00:10:43.357Z,100.00
2023-05-14T00:11:46.105Z,100.00
2023-05-14T00:12:48.430Z,100.00
2023-05-14T00:13:50.938Z,100.00
2023-05-14T00:14:53.906Z,100.00
2023-05-14T00:15:56.085Z,100.00
2023-05-14T00:16:59.632Z,100.00
2023-05-14T00:18:02.006Z,100.00
2023-05-14T00:19:04.270Z,100.00
2023-05-14T00:20:12.050Z,100.00
2023-05-14T00:21:14.277Z,100.00
2023-05-14T00:22:16.480Z,100.00
2023-05-14T00:23:18.662Z,100.00
2023-05-14T00:24:20.880Z,100.00
2023-05-14T00:25:23.144Z,100.00
2023-05-14T00:26:25.354Z,100.00
2023-05-14T00:27:27.623Z,100.00
2023-05-14T00:28:29.776Z,100.00
2023-05-14T00:29:31.976Z,100.00
2023-05-14T00:30:54.276Z,100.00
2023-05-14T00:31:56.450Z,100.00
2023-05-14T00:32:58.749Z,100.00
2023-05-14T00:34:01.320Z,100.00
2023-05-14T00:35:04.314Z,100.00
2023-05-14T00:36:06.917Z,100.00
2023-05-14T00:37:09.882Z,100.00
2023-05-14T00:38:17.011Z,100.00
2023-05-14T00:39:19.154Z,100.00
2023-05-14T00:40:26.878Z,100.00
2023-05-14T00:41:29.084Z,100.00
2023-05-14T00:42:31.611Z,100.00
2023-05-14T00:43:33.860Z,100.00
2023-05-14T00:44:36.008Z,100.00
2023-05-14T00:45:38.800Z,100.00
2023-05-14T00:46:43.610Z,100.00
2023-05-14T00:47:47.900Z,100.00
2023-05-14T00:48:50.258Z,100.00
2023-05-14T00:49:52.795Z,100.00
2023-05-14T00:50:55.112Z,100.00
2023-05-14T00:52:00.341Z,100.00
2023-05-14T00:53:02.819Z,100.00
2023-05-14T00:54:06.365Z,100.00
2023-05-14T00:55:09.027Z,100.00
2023-05-14T00:56:11.647Z,100.00
2023-05-14T00:57:13.963Z,100.00
2023-05-14T00:58:17.679Z,100.00
2023-05-14T00:59:19.880Z,100.00
2023-05-14T01:00:22.328Z,100.00
2023-05-14T01:01:24.755Z,100.00
2023-05-14T01:02:27.094Z,100.00
2023-05-14T01:03:31.649Z,100.00
2023-05-14T01:04:35.192Z,100.00
2023-05-14T01:06:05.429Z,100.00
2023-05-14T01:07:29.197Z,100.00
2023-05-14T01:08:31.320Z,100.00
2023-05-14T01:09:49.603Z,100.00
2023-05-14T01:10:57.082Z,100.00
2023-05-14T01:12:29.804Z,100.00
2023-05-14T01:13:53.968Z,100.00
2023-05-14T01:15:09.279Z,100.00
2023-05-14T01:16:14.275Z,100.00
2023-05-14T01:17:20.030Z,100.00
2023-05-14T01:18:23.084Z,100.00
2023-05-14T01:19:44.414Z,100.00
2023-05-14T01:20:50.896Z,100.00
2023-05-14T01:21:53.161Z,100.00
2023-05-14T01:22:55.437Z,100.00
2023-05-14T01:23:57.635Z,100.00
2023-05-14T01:25:00.283Z,100.00
2023-05-14T01:26:02.444Z,100.00
2023-05-14T01:27:17.932Z,100.00
2023-05-14T01:28:28.694Z,100.00
2023-05-14T01:29:33.851Z,100.00
2023-05-14T01:30:45.818Z,100.00
2023-05-14T01:31:50.648Z,100.00
2023-05-14T01:32:56.396Z,100.00
2023-05-14T01:34:00.169Z,100.00
2023-05-14T01:35:03.914Z,100.00
2023-05-14T01:36:06.716Z,100.00
2023-05-14T01:37:12.340Z,100.00
2023-05-14T01:38:18.870Z,100.00
2023-05-14T01:39:22.932Z,100.00
2023-05-14T01:40:26.058Z,100.00
2023-05-14T01:41:29.591Z,100.00
2023-05-14T01:42:32.910Z,100.00
2023-05-14T01:43:36.149Z,100.00
2023-05-14T01:44:38.419Z,100.00
2023-05-14T01:45:41.449Z,100.00
2023-05-14T01:46:43.645Z,100.00
2023-05-14T01:47:45.947Z,100.00
2023-05-14T01:48:48.214Z,100.00
2023-05-14T01:49:50.618Z,100.00
2023-05-14T01:50:52.922Z,100.00
2023-05-14T01:51:55.185Z,100.00
2023-05-14T01:52:57.683Z,100.00
2023-05-14T01:54:00.065Z,100.00
2023-05-14T01:55:02.556Z,100.00
2023-05-14T01:56:04.891Z,100.00
2023-05-14T01:57:07.114Z,100.00
2023-05-14T01:58:09.309Z,100.00
2023-05-14T01:59:11.554Z,100.00
2023-05-14T02:02:08.462Z,100.00
2023-05-14T02:03:11.384Z,100.00
2023-05-14T02:04:13.705Z,100.00
2023-05-14T02:05:17.359Z,100.00
2023-05-14T02:06:19.548Z,100.00
2023-05-14T02:07:21.904Z,100.00
2023-05-14T02:08:24.061Z,100.00
2023-05-14T02:09:26.305Z,100.00
2023-05-14T02:10:28.472Z,100.00
2023-05-14T02:11:30.652Z,100.00
2023-05-14T02:12:33.024Z,100.00
2023-05-14T02:13:36.309Z,100.00
2023-05-14T02:14:38.809Z,100.00
2023-05-14T02:15:41.033Z,100.00
2023-05-14T02:16:43.502Z,100.00
2023-05-14T02:17:45.731Z,100.00
2023-05-14T02:18:48.032Z,100.00
2023-05-14T02:19:50.346Z,100.00
2023-05-14T02:20:52.569Z,100.00
2023-05-14T02:21:54.872Z,100.00
2023-05-14T02:22:57.055Z,100.00
2023-05-14T02:23:59.242Z,100.00
2023-05-14T02:25:01.530Z,100.00
2023-05-14T02:26:03.889Z,100.00
2023-05-14T02:27:06.299Z,100.00
2023-05-14T02:28:08.534Z,100.00
2023-05-14T02:29:11.469Z,100.00
2023-05-14T02:30:13.797Z,100.00
2023-05-14T02:31:17.608Z,100.00
2023-05-14T02:32:20.039Z,100.00
2023-05-14T02:33:22.553Z,100.00
2023-05-14T02:34:25.033Z,100.00
2023-05-14T02:35:27.408Z,100.00
2023-05-14T02:36:29.575Z,100.00
2023-05-14T02:37:31.906Z,100.00
2023-05-14T02:38:34.138Z,100.00
2023-05-14T02:39:36.464Z,100.00
2023-05-14T02:40:39.028Z,100.00
2023-05-14T02:41:41.214Z,100.00
2023-05-14T02:42:43.483Z,100.00
2023-05-14T02:43:46.149Z,100.00
2023-05-14T02:44:49.599Z,100.00
2023-05-14T02:45:52.543Z,100.00
2023-05-14T02:46:54.919Z,100.00
2023-05-14T02:47:57.263Z,100.00
2023-05-14T02:48:59.868Z,100.00
2023-05-14T02:50:02.061Z,100.00
2023-05-14T02:51:04.684Z,100.00
2023-05-14T02:52:07.223Z,100.00
2023-05-14T02:53:09.611Z,100.00
2023-05-14T02:54:12.224Z,100.00
2023-05-14T02:55:15.124Z,100.00
2023-05-14T02:56:17.785Z,100.00
2023-05-14T02:57:21.074Z,100.00
2023-05-14T02:58:27.432Z,100.00
2023-05-14T02:59:31.657Z,100.00
2023-05-14T03:00:34.681Z,100.00
2023-05-14T03:01:37.218Z,100.00
2023-05-14T03:02:40.204Z,100.00
2023-05-14T03:03:43.580Z,100.00
2023-05-14T03:04:46.737Z,100.00
2023-05-14T03:05:49.214Z,100.00
2023-05-14T03:06:51.690Z,100.00
2023-05-14T03:07:54.108Z,100.00
2023-05-14T03:08:56.235Z,100.00
2023-05-14T03:10:01.238Z,100.00
2023-05-14T03:11:04.014Z,100.00
2023-05-14T03:12:07.512Z,100.00
2023-05-14T03:13:09.931Z,100.00
2023-05-14T03:14:13.731Z,100.00
2023-05-14T03:15:17.746Z,100.00
2023-05-14T03:16:19.944Z,100.00
2023-05-14T03:17:22.452Z,100.00
2023-05-14T03:18:24.929Z,100.00
2023-05-14T03:19:27.182Z,100.00
2023-05-14T03:20:29.574Z,100.00
2023-05-14T03:21:32.055Z,100.00
2023-05-14T03:22:34.372Z,100.00
2023-05-14T03:23:36.673Z,100.00
2023-05-14T03:24:40.096Z,100.00
2023-05-14T03:25:42.238Z,100.00
2023-05-14T03:26:44.391Z,100.00
2023-05-14T03:27:46.609Z,100.00
2023-05-14T03:28:50.605Z,100.00
2023-05-14T03:29:52.820Z,100.00
2023-05-14T03:30:55.388Z,100.00
2023-05-14T03:31:57.784Z,100.00
2023-05-14T03:33:00.174Z,100.00
2023-05-14T03:34:02.643Z,100.00
2023-05-14T03:35:05.337Z,100.00
2023-05-14T03:36:08.323Z,100.00
2023-05-14T03:37:11.014Z,100.00
2023-05-14T03:38:13.182Z,100.00
2023-05-14T03:39:19.502Z,100.00
2023-05-14T03:40:22.014Z,100.00
2023-05-14T03:41:26.411Z,100.00
2023-05-14T03:42:28.688Z,100.00
2023-05-14T03:43:30.976Z,100.00
2023-05-14T03:44:33.291Z,100.00
2023-05-14T03:45:35.664Z,100.00
2023-05-14T03:46:37.998Z,100.00
2023-05-14T03:47:40.355Z,100.00
2023-05-14T03:48:42.815Z,100.00
2023-05-14T03:49:45.461Z,100.00
2023-05-14T03:50:49.741Z,100.00
2023-05-14T03:51:52.070Z,100.00
2023-05-14T03:52:55.121Z,100.00
2023-05-14T03:53:58.259Z,100.00
2023-05-14T03:55:00.568Z,100.00
2023-05-14T03:56:02.849Z,100.00
2023-05-14T03:57:05.148Z,100.00
2023-05-14T03:58:13.462Z,100.00
2023-05-14T03:59:15.994Z,100.00
2023-05-14T04:00:18.288Z,100.00
2023-05-14T04:01:20.528Z,100.00
2023-05-14T04:02:22.825Z,100.00
2023-05-14T04:03:25.208Z,100.00
2023-05-14T04:04:27.530Z,100.00
2023-05-14T04:05:29.747Z,100.00
2023-05-14T04:06:32.997Z,100.00
2023-05-14T04:07:37.156Z,100.00
2023-05-14T04:08:39.368Z,100.00
2023-05-14T04:09:41.504Z,100.00
2023-05-14T04:10:43.711Z,100.00
2023-05-14T04:11:46.222Z,100.00
2023-05-14T04:12:48.382Z,100.00
2023-05-14T04:13:50.612Z,100.00
2023-05-14T04:14:52.914Z,100.00
2023-05-14T04:15:55.108Z,100.00
2023-05-14T04:16:58.241Z,100.00
2023-05-14T04:18:02.404Z,100.00
2023-05-14T04:19:05.692Z,100.00
2023-05-14T04:20:08.330Z,100.00
2023-05-14T04:21:10.666Z,100.00
2023-05-14T04:22:13.248Z,100.00
2023-05-14T04:23:15.376Z,100.00
2023-05-14T04:24:17.629Z,100.00
2023-05-14T04:25:19.967Z,100.00
2023-05-14T04:26:22.938Z,100.00
2023-05-14T04:27:25.204Z,100.00
2023-05-14T04:28:27.586Z,100.00
2023-05-14T04:29:29.996Z,100.00
2023-05-14T04:30:32.308Z,100.00
2023-05-14T04:31:34.572Z,100.00
2023-05-14T04:32:36.868Z,100.00
2023-05-14T04:33:39.910Z,100.00
2023-05-14T04:34:42.421Z,100.00
2023-05-14T04:35:45.703Z,100.00
2023-05-14T04:36:47.888Z,100.00
2023-05-14T04:37:50.339Z,100.00
2023-05-14T04:38:52.630Z,100.00
2023-05-14T04:39:54.869Z,100.00
2023-05-14T04:40:57.124Z,100.00
2023-05-14T04:41:59.378Z,100.00
2023-05-14T04:43:01.644Z,100.00
2023-05-14T04:44:04.030Z,100.00
2023-05-14T04:45:06.987Z,100.00
2023-05-14T04:46:09.524Z,100.00
2023-05-14T04:47:12.685Z,100.00
2023-05-14T04:48:14.981Z,100.00
2023-05-14T04:49:17.257Z,100.00
2023-05-14T04:50:19.499Z,100.00
2023-05-14T04:51:21.786Z,100.00
2023-05-14T04:52:24.447Z,100.00
2023-05-14T04:53:26.712Z,100.00
2023-05-14T04:54:29.156Z,100.00
2023-05-14T04:55:31.419Z,100.00
2023-05-14T04:56:33.660Z,100.00
2023-05-14T04:57:35.846Z,100.00
2023-05-14T04:58:38.012Z,100.00
2023-05-14T04:59:40.350Z,100.00
2023-05-14T05:00:42.532Z,98.88
2023-05-14T05:01:45.767Z,100.00
2023-05-14T05:02:48.268Z,100.00
2023-05-14T05:03:50.945Z,100.00
2023-05-14T05:04:53.247Z,95.91
2023-05-14T05:05:55.453Z,100.00
2023-05-14T05:06:57.808Z,100.00
2023-05-14T05:08:00.075Z,98.03
2023-05-14T05:09:02.415Z,92.19
2023-05-14T05:10:04.917Z,93.82
2023-05-14T05:11:07.151Z,98.77
2023-05-14T05:12:09.561Z,92.34
2023-05-14T05:13:11.852Z,85.91
2023-05-14T05:14:14.141Z,96.50
2023-05-14T05:15:16.504Z,100.00
2023-05-14T05:16:18.736Z,100.00
2023-05-14T05:17:21.051Z,100.00
2023-05-14T05:18:23.283Z,100.00
2023-05-14T05:19:35.690Z,100.00
2023-05-14T05:20:42.266Z,100.00
2023-05-14T05:21:44.570Z,90.54
2023-05-14T05:22:46.786Z,75.53
2023-05-14T05:23:49.096Z,74.50
2023-05-14T05:24:51.275Z,83.20
2023-05-14T05:25:53.537Z,94.31
2023-05-14T05:26:56.420Z,90.25
2023-05-14T05:27:58.829Z,87.69
2023-05-14T05:29:01.051Z,83.74
2023-05-14T05:30:04.032Z,72.29
2023-05-14T05:31:07.559Z,72.20
2023-05-14T05:32:10.250Z,72.45
2023-05-14T05:33:12.752Z,71.33
2023-05-14T05:34:15.477Z,74.04
2023-05-14T05:35:17.685Z,73.79
2023-05-14T05:36:19.977Z,67.67
2023-05-14T05:37:22.248Z,64.84
2023-05-14T05:38:24.460Z,69.41
2023-05-14T05:39:26.621Z,65.88
2023-05-14T05:40:29.040Z,60.75
2023-05-14T05:41:31.212Z,62.06
2023-05-14T05:42:33.359Z,74.61
2023-05-14T05:43:35.634Z,100.00
2023-05-14T05:44:37.874Z,100.00
2023-05-14T05:45:40.657Z,100.00
2023-05-14T05:46:42.962Z,100.00
2023-05-14T05:47:45.630Z,100.00
2023-05-14T05:48:47.944Z,100.00
2023-05-14T05:49:50.115Z,100.00
2023-05-14T05:50:52.492Z,100.00
2023-05-14T05:51:54.769Z,100.00
2023-05-14T05:52:59.063Z,100.00
2023-05-14T05:54:01.316Z,100.00
2023-05-14T05:55:03.674Z,100.00
2023-05-14T05:56:06.463Z,100.00
2023-05-14T05:57:08.853Z,100.00
2023-05-14T05:58:11.048Z,100.00
2023-05-14T05:59:13.297Z,100.00
2023-05-14T06:00:17.109Z,100.00
2023-05-14T06:01:19.425Z,100.00
2023-05-14T06:02:21.687Z,100.00
2023-05-14T06:03:24.078Z,100.00
2023-05-14T06:04:26.277Z,100.00
2023-05-14T06:05:28.525Z,100.00
2023-05-14T06:06:32.642Z,100.00
2023-05-14T06:07:34.975Z,100.00
2023-05-14T06:08:37.241Z,100.00
2023-05-14T06:09:39.412Z,100.00
2023-05-14T06:10:41.623Z,100.00
2023-05-14T06:11:43.796Z,100.00
2023-05-14T06:12:46.131Z,100.00
2023-05-14T06:13:48.375Z,100.00
2023-05-14T06:14:51.310Z,100.00
2023-05-14T06:15:53.464Z,100.00
2023-05-14T06:16:55.817Z,100.00
2023-05-14T06:17:58.127Z,100.00
2023-05-14T06:19:00.433Z,100.00
2023-05-14T06:20:02.634Z,100.00
2023-05-14T06:21:04.868Z,100.00
2023-05-14T06:22:07.056Z,100.00
2023-05-14T06:23:09.263Z,100.00
2023-05-14T06:24:11.475Z,100.00
2023-05-14T06:25:13.720Z,100.00
2023-05-14T06:26:15.958Z,100.00
2023-05-14T06:27:18.142Z,100.00
2023-05-14T06:28:20.612Z,100.00
2023-05-14T06:29:22.762Z,100.00
2023-05-14T06:30:25.139Z,100.00
2023-05-14T06:31:27.586Z,100.00
2023-05-14T06:32:29.921Z,100.00
2023-05-14T06:33:32.380Z,100.00
2023-05-14T06:34:34.568Z,100.00
2023-05-14T06:35:36.963Z,100.00
2023-05-14T06:36:39.203Z,100.00
2023-05-14T06:37:41.452Z,100.00
2023-05-14T06:38:43.645Z,100.00
2023-05-14T06:39:50.086Z,100.00
2023-05-14T06:40:55.514Z,100.00
2023-05-14T06:41:57.720Z,100.00
2023-05-14T06:43:00.060Z,100.00
2023-05-14T06:44:02.198Z,100.00
2023-05-14T06:45:05.872Z,100.00
2023-05-14T06:46:08.080Z,100.00
2023-05-14T06:47:10.640Z,100.00
2023-05-14T06:48:13.238Z,100.00
2023-05-14T06:49:15.525Z,100.00
2023-05-14T06:50:17.841Z,100.00
2023-05-14T06:51:20.031Z,100.00
2023-05-14T06:52:22.296Z,100.00
2023-05-14T06:53:24.466Z,100.00
2023-05-14T06:54:26.690Z,100.00
2023-05-14T06:55:28.854Z,100.00
2023-05-14T06:56:31.122Z,100.00
2023-05-14T06:57:34.280Z,100.00
2023-05-14T06:58:36.447Z,100.00
2023-05-14T06:59:38.668Z,100.00
2023-05-14T07:00:41.021Z,100.00
2023-05-14T07:01:43.306Z,100.00
2023-05-14T07:02:45.656Z,100.00
2023-05-14T07:03:47.916Z,100.00
2023-05-14T07:04:50.161Z,100.00
2023-05-14T07:05:52.417Z,100.00
2023-05-14T07:06:54.628Z,100.00
2023-05-14T07:07:56.912Z,100.00
2023-05-14T07:09:01.273Z,100.00
2023-05-14T07:10:03.783Z,100.00
2023-05-14T07:11:05.910Z,100.00
2023-05-14T07:12:08.379Z,100.00
2023-05-14T07:13:10.773Z,100.00
2023-05-14T07:14:12.993Z,100.00
2023-05-14T07:15:15.719Z,100.00
2023-05-14T07:16:17.959Z,100.00
2023-05-14T07:17:20.344Z,100.00
2023-05-14T07:18:24.033Z,100.00
2023-05-14T07:19:28.551Z,100.00
2023-05-14T07:20:30.845Z,100.00
2023-05-14T07:21:33.057Z,100.00
2023-05-14T07:22:35.321Z,100.00
2023-05-14T07:23:38.310Z,100.00
2023-05-14T07:24:40.869Z,100.00
2023-05-14T07:25:43.125Z,100.00
2023-05-14T07:26:45.454Z,100.00
2023-05-14T07:27:47.721Z,100.00
2023-05-14T07:28:50.000Z,100.00
2023-05-14T07:29:52.173Z,100.00
2023-05-14T07:30:54.392Z,100.00
2023-05-14T07:31:56.732Z,100.00
2023-05-14T07:32:59.011Z,100.00
2023-05-14T07:34:01.231Z,100.00
2023-05-14T07:35:03.880Z,100.00
2023-05-14T07:36:06.952Z,100.00
2023-05-14T07:37:09.384Z,100.00
2023-05-14T07:38:11.608Z,100.00
2023-05-14T07:39:13.905Z,100.00
2023-05-14T07:40:16.256Z,100.00
2023-05-14T07:41:18.455Z,100.00
2023-05-14T07:42:34.548Z,100.00
2023-05-14T07:43:38.938Z,100.00
2023-05-14T07:44:41.153Z,100.00
2023-05-14T07:45:43.387Z,100.00
2023-05-14T07:46:45.560Z,100.00
2023-05-14T07:47:51.817Z,100.00
2023-05-14T07:48:54.295Z,100.00
2023-05-14T07:49:57.462Z,100.00
2023-05-14T07:50:59.905Z,100.00
2023-05-14T07:52:02.264Z,100.00
2023-05-14T07:53:04.467Z,100.00
2023-05-14T07:54:06.688Z,100.00
2023-05-14T07:55:09.284Z,100.00
2023-05-14T07:56:11.436Z,100.00
2023-05-14T07:57:13.610Z,100.00
2023-05-14T07:58:16.576Z,100.00
2023-05-14T07:59:18.736Z,100.00
2023-05-14T08:00:21.099Z,100.00
2023-05-14T08:01:23.473Z,100.00
2023-05-14T08:02:26.063Z,100.00
2023-05-14T08:03:28.457Z,100.00
2023-05-14T08:04:30.976Z,100.00
2023-05-14T08:05:33.230Z,100.00
2023-05-14T08:06:35.573Z,100.00
2023-05-14T08:07:37.810Z,100.00
2023-05-14T08:08:40.195Z,100.00
2023-05-14T08:09:42.380Z,100.00
2023-05-14T08:10:44.631Z,100.00
2023-05-14T08:11:46.871Z,100.00
2023-05-14T08:12:49.014Z,100.00
2023-05-14T08:13:51.270Z,100.00
2023-05-14T08:14:53.511Z,100.00
2023-05-14T08:15:56.075Z,100.00
2023-05-14T08:16:58.590Z,100.00
2023-05-14T08:18:03.583Z,100.00
2023-05-14T08:19:06.312Z,100.00
2023-05-14T08:20:09.935Z,100.00
2023-05-14T08:21:12.215Z,100.00
2023-05-14T08:22:14.457Z,100.00
2023-05-14T08:23:16.728Z,100.00
2023-05-14T08:24:19.141Z,100.00
2023-05-14T08:25:21.277Z,100.00
2023-05-14T08:26:23.481Z,100.00
2023-05-14T08:27:26.352Z,100.00
2023-05-14T08:28:28.621Z,100.00
2023-05-14T08:29:30.794Z,100.00
2023-05-14T08:30:33.253Z,100.00
2023-05-14T08:31:35.585Z,100.00
2023-05-14T08:32:38.578Z,100.00
2023-05-14T08:33:41.264Z,100.00
2023-05-14T08:34:44.102Z,100.00
2023-05-14T08:35:46.348Z,100.00
2023-05-14T08:36:48.542Z,100.00
2023-05-14T08:37:51.388Z,100.00
2023-05-14T08:38:53.525Z,100.00
2023-05-14T08:39:56.242Z,100.00
2023-05-14T08:40:59.669Z,100.00
2023-05-14T08:42:06.203Z,100.00
2023-05-14T08:43:10.783Z,100.00
2023-05-14T08:44:14.980Z,100.00
2023-05-14T08:45:19.972Z,100.00
2023-05-14T08:46:24.282Z,100.00
2023-05-14T08:47:26.669Z,100.00
2023-05-14T08:48:33.420Z,100.00
2023-05-14T08:49:42.954Z,100.00
2023-05-14T08:50:45.429Z,100.00
2023-05-14T08:51:48.417Z,100.00
2023-05-14T08:52:51.567Z,100.00
2023-05-14T08:53:53.779Z,100.00
2023-05-14T08:54:57.304Z,100.00
2023-05-14T08:56:01.353Z,100.00
2023-05-14T08:57:04.529Z,100.00
2023-05-14T08:58:06.918Z,100.00
2023-05-14T08:59:09.106Z,100.00
2023-05-14T09:00:12.104Z,100.00
2023-05-14T09:01:14.488Z,100.00
2023-05-14T09:02:19.243Z,100.00
2023-05-14T09:03:22.959Z,100.00
2023-05-14T09:04:25.335Z,100.00
2023-05-14T09:05:28.079Z,100.00
2023-05-14T09:06:31.123Z,100.00
2023-05-14T09:07:33.585Z,100.00
2023-05-14T09:08:36.337Z,100.00
2023-05-14T09:09:38.699Z,100.00
2023-05-14T09:10:41.031Z,100.00
2023-05-14T09:11:46.430Z,100.00
2023-05-14T09:12:48.603Z,100.00
2023-05-14T09:13:50.771Z,100.00
2023-05-14T09:14:53.388Z,100.00
2023-05-14T09:15:56.272Z,100.00
2023-05-14T09:16:59.158Z,100.00
2023-05-14T09:18:01.923Z,100.00
2023-05-14T09:19:04.976Z,100.00
2023-05-14T09:20:09.285Z,100.00
2023-05-14T09:21:14.238Z,100.00
2023-05-14T09:22:18.128Z,100.00
2023-05-14T09:23:20.312Z,100.00
2023-05-14T09:24:24.257Z,100.00
2023-05-14T09:25:28.313Z,100.00
2023-05-14T09:26:32.583Z,100.00
2023-05-14T09:27:36.139Z,100.00
2023-05-14T09:28:43.890Z,100.00
2023-05-14T09:29:46.166Z,100.00
2023-05-14T09:30:52.227Z,100.00
2023-05-14T09:31:55.429Z,100.00
2023-05-14T09:32:57.687Z,100.00
2023-05-14T09:34:00.664Z,100.00
2023-05-14T09:35:21.678Z,100.00
2023-05-14T09:36:25.024Z,100.00
2023-05-14T09:37:28.546Z,100.00
2023-05-14T09:38:32.016Z,100.00
2023-05-14T09:39:36.472Z,100.00
2023-05-14T09:40:39.236Z,100.00
2023-05-14T09:41:41.742Z,100.00
2023-05-14T09:42:44.306Z,100.00
2023-05-14T09:43:46.531Z,100.00
2023-05-14T09:44:48.687Z,100.00
2023-05-14T09:45:51.021Z,100.00
2023-05-14T09:46:53.925Z,100.00
2023-05-14T09:47:59.850Z,100.00
2023-05-14T09:49:02.330Z,100.00
2023-05-14T09:50:05.702Z,100.00
2023-05-14T09:51:12.710Z,100.00
2023-05-14T09:52:14.963Z,100.00
2023-05-14T09:53:17.706Z,100.00
2023-05-14T09:54:20.152Z,100.00
2023-05-14T09:55:22.935Z,100.00
2023-05-14T09:56:25.188Z,100.00
2023-05-14T09:57:27.684Z,100.00
2023-05-14T09:58:30.026Z,100.00
2023-05-14T09:59:32.293Z,100.00
2023-05-14T10:00:35.122Z,100.00
2023-05-14T10:01:38.236Z,100.00
2023-05-14T10:02:42.698Z,100.00
2023-05-14T10:03:45.444Z,100.00
2023-05-14T10:04:51.250Z,100.00
2023-05-14T10:05:56.016Z,100.00
2023-05-14T10:06:58.982Z,100.00
2023-05-14T10:08:05.858Z,100.00
2023-05-14T10:09:12.924Z,100.00
2023-05-14T10:10:26.584Z,100.00
2023-05-14T10:11:33.020Z,100.00
2023-05-14T10:12:38.811Z,100.00
2023-05-14T10:13:45.688Z,100.00
2023-05-14T10:14:53.670Z,100.00
2023-05-14T10:16:28.240Z,100.00
2023-05-14T10:17:34.204Z,100.00
2023-05-14T10:18:41.408Z,100.00
2023-05-14T10:19:52.400Z,100.00
2023-05-14T10:21:05.676Z,100.00
2023-05-14T10:22:12.592Z,100.00
2023-05-14T10:23:15.208Z,100.00
2023-05-14T10:24:19.040Z,100.00
2023-05-14T10:25:21.716Z,100.00
2023-05-14T10:26:25.125Z,100.00
2023-05-14T10:27:27.554Z,100.00
2023-05-14T10:28:31.002Z,100.00
2023-05-14T10:29:37.775Z,100.00
2023-05-14T10:30:46.957Z,100.00
2023-05-14T10:31:56.388Z,100.00
2023-05-14T10:33:09.357Z,100.00
2023-05-14T10:34:44.375Z,100.00
2023-05-14T10:35:55.630Z,100.00
2023-05-14T10:37:02.072Z,100.00
2023-05-14T10:38:08.721Z,100.00
2023-05-14T10:39:11.008Z,100.00
2023-05-14T10:40:14.053Z,100.00
2023-05-14T10:41:21.359Z,100.00
2023-05-14T10:42:27.365Z,100.00
2023-05-14T10:43:30.936Z,100.00
2023-05-14T10:44:35.271Z,100.00
2023-05-14T10:45:37.734Z,100.00
2023-05-14T10:46:40.302Z,100.00
2023-05-14T10:47:45.910Z,100.00
2023-05-14T10:48:50.149Z,100.00
2023-05-14T10:49:56.047Z,100.00
2023-05-14T10:50:58.422Z,100.00
2023-05-14T10:52:01.985Z,100.00
2023-05-14T10:53:04.341Z,100.00
2023-05-14T10:54:08.196Z,100.00
2023-05-14T10:55:14.285Z,100.00
2023-05-14T10:56:16.857Z,100.00
2023-05-14T10:57:20.852Z,100.00
2023-05-14T10:58:23.310Z,100.00
2023-05-14T10:59:28.460Z,100.00
2023-05-14T11:00:34.378Z,100.00
2023-05-14T11:01:36.737Z,100.00
2023-05-14T11:02:47.952Z,100.00
2023-05-14T11:03:53.364Z,100.00
2023-05-14T11:05:03.964Z,100.00
2023-05-14T11:06:12.245Z,100.00
2023-05-14T11:07:14.536Z,100.00
2023-05-14T11:08:16.999Z,100.00
2023-05-14T11:09:22.321Z,100.00
2023-05-14T11:10:31.178Z,100.00
2023-05-14T11:11:33.477Z,100.00
2023-05-14T11:12:40.919Z,100.00
2023-05-14T11:13:44.549Z,100.00
2023-05-14T11:14:47.204Z,100.00
2023-05-14T11:15:49.575Z,99.91
2023-05-14T11:16:52.046Z,94.76
2023-05-14T11:17:54.699Z,96.60
2023-05-14T11:19:04.437Z,100.00
2023-05-14T11:20:07.919Z,100.00
2023-05-14T11:21:10.253Z,100.00
2023-05-14T11:22:13.750Z,100.00
2023-05-14T11:23:15.890Z,100.00
2023-05-14T11:24:18.438Z,100.00
2023-05-14T11:25:21.632Z,100.00
2023-05-14T11:26:24.415Z,100.00
2023-05-14T11:27:26.796Z,100.00
2023-05-14T11:28:29.719Z,100.00
2023-05-14T11:29:31.917Z,100.00
2023-05-14T11:30:35.060Z,99.45
2023-05-14T11:31:37.330Z,100.00
2023-05-14T11:32:40.821Z,100.00
2023-05-14T11:33:43.253Z,99.59
2023-05-14T11:34:46.761Z,100.00
2023-05-14T11:35:48.959Z,98.27
2023-05-14T11:36:51.208Z,99.76
2023-05-14T11:37:53.492Z,99.92
2023-05-14T11:38:55.732Z,100.00
2023-05-14T11:40:00.912Z,100.00
2023-05-14T11:41:04.895Z,100.00
2023-05-14T11:42:16.218Z,100.00
2023-05-14T11:43:18.605Z,100.00
2023-05-14T11:44:21.035Z,100.00
2023-05-14T11:45:27.361Z,100.00
2023-05-14T11:46:30.954Z,100.00
2023-05-14T11:47:33.381Z,100.00
2023-05-14T11:48:35.639Z,100.00
2023-05-14T11:49:38.137Z,100.00
2023-05-14T11:50:41.185Z,100.00
2023-05-14T11:51:43.673Z,100.00
2023-05-14T11:52:47.992Z,100.00
2023-05-14T11:53:50.296Z,100.00
2023-05-14T11:54:52.537Z,100.00
2023-05-14T11:55:55.280Z,100.00
2023-05-14T11:56:59.119Z,100.00
2023-05-14T11:58:01.533Z,100.00
2023-05-14T11:59:03.757Z,99.70
2023-05-14T12:00:09.169Z,100.00
2023-05-14T12:01:13.502Z,100.00
2023-05-14T12:02:18.042Z,100.00
2023-05-14T12:03:26.263Z,100.00
2023-05-14T12:04:29.094Z,100.00
2023-05-14T12:05:31.578Z,100.00
2023-05-14T12:06:33.810Z,99.28
2023-05-14T12:07:36.017Z,100.00
2023-05-14T12:08:38.257Z,100.00
2023-05-14T12:09:45.152Z,100.00
2023-05-14T12:10:47.682Z,100.00
2023-05-14T12:11:51.539Z,100.00
2023-05-14T12:12:53.797Z,100.00
2023-05-14T12:13:55.942Z,100.00
2023-05-14T12:14:59.885Z,100.00
2023-05-14T12:16:02.639Z,100.00
2023-05-14T12:17:21.954Z,100.00
2023-05-14T12:18:32.338Z,100.00
2023-05-14T12:19:40.028Z,100.00
2023-05-14T12:20:47.483Z,100.00
2023-05-14T12:21:51.067Z,100.00
2023-05-14T12:22:53.274Z,100.00
2023-05-14T12:23:59.994Z,100.00
2023-05-14T12:25:02.223Z,100.00
2023-05-14T12:26:06.360Z,100.00
2023-05-14T12:27:10.465Z,100.00
2023-05-14T12:28:16.464Z,100.00
2023-05-14T12:29:21.712Z,100.00
2023-05-14T12:30:24.015Z,100.00
2023-05-14T12:31:33.646Z,100.00
2023-05-14T12:32:37.948Z,100.00
2023-05-14T12:33:40.598Z,100.00
2023-05-14T12:34:42.840Z,100.00
2023-05-14T12:35:45.063Z,100.00
2023-05-14T12:36:47.556Z,100.00
2023-05-14T12:37:49.781Z,100.00
2023-05-14T12:39:00.518Z,100.00
2023-05-14T12:40:11.890Z,100.00
2023-05-14T12:41:14.128Z,100.00
2023-05-14T12:42:16.567Z,100.00
2023-05-14T12:43:19.288Z,100.00
2023-05-14T12:44:22.609Z,100.00
2023-05-14T12:45:25.233Z,100.00
2023-05-14T12:46:27.848Z,100.00
2023-05-14T12:47:30.175Z,100.00
2023-05-14T12:48:32.679Z,100.00
2023-05-14T12:49:34.874Z,100.00
2023-05-14T12:50:37.096Z,100.00
2023-05-14T12:51:39.238Z,100.00
2023-05-14T12:52:41.842Z,100.00
2023-05-14T12:53:44.073Z,100.00
2023-05-14T12:54:46.223Z,100.00
2023-05-14T12:55:49.594Z,100.00
2023-05-14T12:56:51.862Z,100.00
2023-05-14T12:57:54.368Z,100.00
2023-05-14T12:58:56.727Z,100.00
2023-05-14T12:59:59.160Z,100.00
2023-05-14T13:01:01.528Z,93.50
2023-05-14T13:02:03.852Z,89.99
2023-05-14T13:03:06.078Z,85.03
2023-05-14T13:04:12.461Z,81.36
2023-05-14T13:05:14.851Z,81.61
2023-05-14T13:06:17.168Z,80.91
2023-05-14T13:07:19.352Z,81.83
2023-05-14T13:08:24.857Z,78.82
2023-05-14T13:09:28.006Z,84.20
2023-05-14T13:10:30.420Z,88.90
2023-05-14T13:11:32.986Z,87.78
2023-05-14T13:12:35.258Z,88.44
2023-05-14T13:13:37.410Z,86.71
2023-05-14T13:14:39.765Z,85.17
2023-05-14T13:15:42.156Z,88.47
2023-05-14T13:16:44.398Z,90.09